createdAt,value
2022-10-11T00:01:45.244Z,80.12
2022-10-11T00:04:12.688Z,80.31
2022-10-11T00:09:50.156Z,80.10
2022-10-11T00:13:10.320Z,79.83
2022-10-11T00:29:41.692Z,80.82
2022-10-11T00:32:42.331Z,80.93
2022-10-11T00:35:18.211Z,80.78
2022-10-11T00:38:14.658Z,81.04
2022-10-11T03:26:12.482Z,84.50
2022-10-11T03:31:36.459Z,84.47
2022-10-11T03:34:03.317Z,84.22
2022-10-11T03:36:30.037Z,84.00
2022-10-11T03:38:57.055Z,84.09
2022-10-11T03:41:23.778Z,83.72
2022-10-11T03:43:50.518Z,83.85
2022-10-11T03:46:17.663Z,83.74
2022-10-11T03:48:44.621Z,83.58
2022-10-11T03:51:13.178Z,83.46
2022-10-11T03:53:40.022Z,83.66
2022-10-11T03:56:08.545Z,83.67
2022-10-11T03:58:35.550Z,83.60
2022-10-11T04:01:02.402Z,83.46
2022-10-11T04:03:29.206Z,83.71
2022-10-11T04:05:55.906Z,83.84
2022-10-11T04:08:28.882Z,83.94
2022-10-11T04:10:56.071Z,83.86
2022-10-11T04:13:22.850Z,84.42
2022-10-11T04:15:49.577Z,84.18
2022-10-11T04:18:16.321Z,84.16
2022-10-11T04:20:43.034Z,84.63
2022-10-11T04:23:13.199Z,84.61
2022-10-11T04:25:43.810Z,84.58
2022-10-11T04:28:11.323Z,84.55
2022-10-11T04:30:38.334Z,84.54
2022-10-11T04:33:05.362Z,84.44
2022-10-11T04:35:34.884Z,85.06
2022-10-11T04:38:03.870Z,84.94
2022-10-11T04:40:30.814Z,84.67
2022-10-11T04:42:58.328Z,85.03
2022-10-11T04:45:25.379Z,84.90
2022-10-11T04:47:55.628Z,85.37
2022-10-11T04:50:23.286Z,85.13
2022-10-11T04:52:50.516Z,85.44
2022-10-11T04:55:18.162Z,85.69
2022-10-11T04:57:45.439Z,85.75
2022-10-11T05:00:19.435Z,85.79
2022-10-11T05:02:56.218Z,85.84
2022-10-11T05:05:23.809Z,85.86
2022-10-11T05:07:53.290Z,85.85
2022-10-11T05:10:20.494Z,85.93
2022-10-11T05:12:48.117Z,86.10
2022-10-11T05:15:15.143Z,86.13
2022-10-11T05:17:42.073Z,86.11
2022-10-11T05:20:10.006Z,86.24
2022-10-11T05:22:37.339Z,86.21
2022-10-11T05:25:04.882Z,86.39
2022-10-11T05:27:32.632Z,86.42
2022-10-11T05:30:00.178Z,86.20
2022-10-11T05:32:28.117Z,86.35
2022-10-11T05:34:55.742Z,86.24
2022-10-11T05:37:25.575Z,86.13
2022-10-11T05:39:53.307Z,85.96
2022-10-11T05:42:20.131Z,85.70
2022-10-11T05:44:46.995Z,85.87
2022-10-11T05:47:13.825Z,85.81
2022-10-11T05:49:40.683Z,85.50
2022-10-11T05:52:09.268Z,85.80
2022-10-11T05:54:36.197Z,85.76
2022-10-11T05:57:05.977Z,85.61
2022-10-11T05:59:35.178Z,85.56
2022-10-11T06:02:02.017Z,85.45
2022-10-11T06:04:28.870Z,85.31
2022-10-11T06:06:55.691Z,85.29
2022-10-11T06:09:22.686Z,85.48
2022-10-11T06:11:49.618Z,85.53
2022-10-11T06:15:14.730Z,85.50
2022-10-11T06:18:20.938Z,85.28
2022-10-11T06:23:17.054Z,85.43
2022-10-11T06:25:43.856Z,85.48
2022-10-11T06:28:10.732Z,85.34
2022-10-11T06:30:38.794Z,85.58
2022-10-11T06:33:05.853Z,85.71
2022-10-11T06:35:32.714Z,85.56
2022-10-11T06:37:59.537Z,85.64
2022-10-11T06:40:26.657Z,85.67
2022-10-11T06:42:53.884Z,85.87
2022-10-11T06:45:20.767Z,85.90
2022-10-11T06:47:47.705Z,85.79
2022-10-11T06:50:54.429Z,86.05
2022-10-11T06:53:31.837Z,86.08
2022-10-11T06:57:18.008Z,85.72
2022-10-11T07:00:21.147Z,85.79
2022-10-11T07:02:53.511Z,85.76
2022-10-11T07:05:21.788Z,85.86
2022-10-11T07:11:45.057Z,85.84
2022-10-11T07:18:50.579Z,85.75
2022-10-11T07:21:35.013Z,85.66
2022-10-11T07:24:33.231Z,85.64
2022-10-11T07:27:00.984Z,85.28
2022-10-11T07:29:43.745Z,85.22
2022-10-11T07:32:19.215Z,85.12
2022-10-11T07:38:05.317Z,85.12
2022-10-11T07:41:16.690Z,84.59
2022-10-11T07:43:52.736Z,84.82
2022-10-11T07:46:28.194Z,84.84
2022-10-11T07:49:14.881Z,84.48
2022-10-11T07:51:46.024Z,84.66
2022-10-11T07:54:12.877Z,84.47
2022-10-11T07:56:40.308Z,84.42
2022-10-11T07:59:08.214Z,84.48
2022-10-11T08:01:35.170Z,84.00
2022-10-11T08:04:02.131Z,84.12
2022-10-11T08:06:32.654Z,83.96
2022-10-11T08:09:00.309Z,84.05
2022-10-11T08:11:36.152Z,83.99
2022-10-11T08:14:32.951Z,83.97
2022-10-11T08:17:08.327Z,83.90
2022-10-11T08:19:49.117Z,84.13
2022-10-11T08:22:16.844Z,84.11
2022-10-11T08:24:43.670Z,83.94
2022-10-11T08:27:10.457Z,83.70
2022-10-11T08:29:37.305Z,83.93
2022-10-11T08:32:04.256Z,83.68
2022-10-11T08:34:31.152Z,83.59
2022-10-11T08:36:57.948Z,83.51
2022-10-11T08:39:24.858Z,83.54
2022-10-11T08:42:01.041Z,83.36
2022-10-11T08:45:09.013Z,82.99
2022-10-11T08:47:33.196Z,82.84
2022-10-11T08:50:00.331Z,82.87
2022-10-11T08:53:15.649Z,82.43
2022-10-11T08:55:49.299Z,82.41
2022-10-11T08:58:18.839Z,82.28
2022-10-11T09:00:47.434Z,81.74
2022-10-11T09:03:29.137Z,81.58
2022-10-11T09:06:21.920Z,81.43
2022-10-11T09:08:53.167Z,81.50
2022-10-11T09:11:54.126Z,81.35
2022-10-11T09:14:34.570Z,80.92
2022-10-11T09:17:17.742Z,80.82
2022-10-11T09:19:56.695Z,80.76
2022-10-11T09:22:33.892Z,80.48
2022-10-11T09:25:03.760Z,80.42
2022-10-11T09:28:01.777Z,79.97
2022-10-11T09:30:28.208Z,80.16
2022-10-11T09:33:04.041Z,79.80
2022-10-11T09:35:55.690Z,79.41
2022-10-11T09:38:42.569Z,79.41
2022-10-11T09:41:18.412Z,79.10
2022-10-11T09:43:48.609Z,78.96
2022-10-11T09:46:22.989Z,78.63
2022-10-11T09:48:51.036Z,78.66
2022-10-11T09:51:21.060Z,78.39
2022-10-11T09:53:58.062Z,78.13
2022-10-11T09:56:27.073Z,77.51
2022-10-11T09:59:08.425Z,77.02
2022-10-11T10:01:35.246Z,77.12
2022-10-11T10:04:17.106Z,76.57
2022-10-11T10:06:43.903Z,76.58
2022-10-11T10:09:24.809Z,76.10
2022-10-11T10:11:51.482Z,75.83
2022-10-11T10:14:29.468Z,75.25
2022-10-11T10:17:02.171Z,75.05
2022-10-11T10:19:29.702Z,74.43
2022-10-11T10:21:57.019Z,73.62
2022-10-11T10:24:42.726Z,73.33
2022-10-11T10:27:31.559Z,71.95
2022-10-11T10:30:03.297Z,71.56
2022-10-11T10:32:58.368Z,70.67
2022-10-11T10:35:25.592Z,70.26
2022-10-11T10:38:07.040Z,69.98
2022-10-11T10:41:08.275Z,69.54
2022-10-11T10:43:37.280Z,69.10
2022-10-11T10:46:18.162Z,68.33
2022-10-11T10:51:43.959Z,67.99
2022-10-11T10:54:23.502Z,67.94
2022-10-11T10:56:56.380Z,66.93
2022-10-11T10:59:47.742Z,66.38
2022-10-11T11:02:40.669Z,65.84
2022-10-11T11:05:24.028Z,65.54
2022-10-11T11:08:13.230Z,64.94
2022-10-11T11:10:49.034Z,64.64
2022-10-11T11:13:31.278Z,64.02
2022-10-11T11:16:07.429Z,64.00
2022-10-11T11:18:56.077Z,64.22
2022-10-11T11:21:29.454Z,64.70
2022-10-11T11:24:06.563Z,65.13
2022-10-11T11:26:48.023Z,64.93
2022-10-11T11:29:18.395Z,64.76
2022-10-11T11:32:09.082Z,65.11
2022-10-11T11:34:44.479Z,64.57
2022-10-11T11:37:18.282Z,64.09
2022-10-11T11:39:49.354Z,63.96
2022-10-11T11:42:24.565Z,63.34
2022-10-11T11:44:51.825Z,63.25
2022-10-11T11:47:26.032Z,63.40
2022-10-11T11:50:15.401Z,63.57
2022-10-11T11:52:45.959Z,63.02
2022-10-11T11:55:21.174Z,62.91
2022-10-11T11:57:52.164Z,62.22
2022-10-11T12:00:28.136Z,62.64
2022-10-11T12:02:57.681Z,62.65
2022-10-11T12:05:28.359Z,62.43
2022-10-11T12:07:55.166Z,62.54
2022-10-11T12:10:49.255Z,62.19
2022-10-11T12:13:21.031Z,62.29
2022-10-11T12:16:04.202Z,62.32
2022-10-11T12:18:32.885Z,62.28
2022-10-11T12:21:08.236Z,62.65
2022-10-11T12:24:23.833Z,62.92
2022-10-11T12:26:58.060Z,62.91
2022-10-11T12:29:41.600Z,63.49
2022-10-11T12:32:11.159Z,63.43
2022-10-11T12:35:03.042Z,63.39
2022-10-11T12:37:35.339Z,63.61
2022-10-11T12:40:02.270Z,63.61
2022-10-11T12:42:34.777Z,63.80
2022-10-11T12:45:13.706Z,63.48
2022-10-11T12:47:59.943Z,63.54
2022-10-11T12:50:56.840Z,63.62
2022-10-11T12:53:29.187Z,63.60
2022-10-11T12:56:08.829Z,63.04
2022-10-11T12:58:44.123Z,61.51
2022-10-11T13:01:25.079Z,59.83
2022-10-11T13:04:08.190Z,59.04
2022-10-11T13:07:02.136Z,57.88
2022-10-11T13:09:44.137Z,56.86
2022-10-11T13:12:16.466Z,55.57
2022-10-11T13:14:49.105Z,55.59
2022-10-11T13:17:24.905Z,55.20
2022-10-11T13:19:59.813Z,54.88
2022-10-11T13:22:26.704Z,54.40
2022-10-11T13:24:58.016Z,53.96
2022-10-11T13:27:26.704Z,53.40
2022-10-11T13:29:55.210Z,52.96
2022-10-11T13:32:27.803Z,52.63
2022-10-11T13:34:57.552Z,52.13
2022-10-11T13:37:31.817Z,51.92
2022-10-11T13:39:58.658Z,51.44
2022-10-11T13:42:31.346Z,49.94
2022-10-11T13:44:59.509Z,49.47
2022-10-11T13:47:30.393Z,48.82
2022-10-11T13:50:10.948Z,48.88
2022-10-11T13:52:51.163Z,48.59
2022-10-11T13:55:26.773Z,48.13
2022-10-11T13:57:54.048Z,48.16
2022-10-11T14:00:24.096Z,48.09
2022-10-11T14:02:55.150Z,48.72
2022-10-11T14:05:24.584Z,48.97
2022-10-11T14:07:51.520Z,49.03
2022-10-11T14:10:21.989Z,48.68
2022-10-11T14:13:03.258Z,48.26
2022-10-11T14:15:37.809Z,48.41
2022-10-11T14:18:40.635Z,48.22
2022-10-11T14:21:19.483Z,48.83
2022-10-11T14:23:53.769Z,48.82
2022-10-11T14:26:21.936Z,48.89
2022-10-11T14:28:52.986Z,49.22
2022-10-11T14:31:19.878Z,49.59
2022-10-11T14:33:46.598Z,49.70
2022-10-11T14:36:13.296Z,49.46
2022-10-11T14:38:40.046Z,49.81
2022-10-11T14:41:06.708Z,49.75
2022-10-11T14:43:33.407Z,50.10
2022-10-11T14:46:00.045Z,50.07
2022-10-11T14:48:50.378Z,49.82
2022-10-11T14:51:14.211Z,49.97
2022-10-11T14:53:46.245Z,50.11
2022-10-11T14:56:16.691Z,49.98
2022-10-11T14:58:47.570Z,50.00
2022-10-11T15:01:16.930Z,50.55
2022-10-11T15:03:43.954Z,50.50
2022-10-11T15:06:16.296Z,50.17
2022-10-11T15:08:42.992Z,50.26
2022-10-11T15:11:11.839Z,50.22
2022-10-11T15:13:38.566Z,49.75
2022-10-11T15:16:05.646Z,49.26
2022-10-11T15:18:32.589Z,48.25
2022-10-11T15:21:00.825Z,48.31
2022-10-11T15:23:27.630Z,47.92
2022-10-11T15:25:54.442Z,47.07
2022-10-11T15:28:27.449Z,46.16
2022-10-11T15:30:54.912Z,45.66
2022-10-11T15:33:22.155Z,45.59
2022-10-11T15:35:48.927Z,46.70
2022-10-11T15:38:17.797Z,48.20
2022-10-11T15:40:45.350Z,49.17
2022-10-11T15:43:12.341Z,50.04
2022-10-11T15:45:39.707Z,50.88
2022-10-11T15:48:06.858Z,51.53
2022-10-11T15:50:36.881Z,52.22
2022-10-11T15:53:06.282Z,52.65
2022-10-11T15:55:35.593Z,52.81
2022-10-11T15:58:02.460Z,53.26
2022-10-11T16:00:29.824Z,53.54
2022-10-11T16:02:57.562Z,54.02
2022-10-11T16:05:26.196Z,53.94
2022-10-11T16:07:53.833Z,54.22
2022-10-11T16:10:21.092Z,54.56
2022-10-11T16:12:47.841Z,54.86
2022-10-11T16:15:15.001Z,55.24
2022-10-11T16:17:41.739Z,55.63
2022-10-11T16:20:08.799Z,55.89
2022-10-11T16:22:35.903Z,56.19
2022-10-11T16:25:04.043Z,56.18
2022-10-11T16:27:31.246Z,56.87
2022-10-11T16:29:58.449Z,56.91
2022-10-11T16:32:25.541Z,57.22
2022-10-11T16:34:52.202Z,57.68
2022-10-11T16:37:19.245Z,57.71
2022-10-11T16:39:46.672Z,57.94
2022-10-11T16:42:13.338Z,58.32
2022-10-11T16:44:40.099Z,58.19
2022-10-11T16:47:07.048Z,58.62
2022-10-11T16:49:34.214Z,58.97
2022-10-11T16:52:02.589Z,58.92
2022-10-11T16:54:30.622Z,59.04
2022-10-11T16:56:58.402Z,59.31
2022-10-11T16:59:25.168Z,59.60
2022-10-11T17:01:51.917Z,60.05
2022-10-11T17:04:18.703Z,60.05
2022-10-11T17:06:45.607Z,60.12
2022-10-11T17:09:13.264Z,60.43
2022-10-11T17:11:40.738Z,60.80
2022-10-11T17:14:07.918Z,60.67
2022-10-11T17:16:35.467Z,61.26
2022-10-11T17:19:03.120Z,61.66
2022-10-11T17:21:30.081Z,61.34
2022-10-11T17:23:56.786Z,61.64
2022-10-11T17:26:26.363Z,61.69
2022-10-11T17:28:54.378Z,62.02
2022-10-11T17:31:21.432Z,61.88
2022-10-11T17:33:48.534Z,62.12
2022-10-11T17:36:23.854Z,62.67
2022-10-11T17:38:51.674Z,62.92
2022-10-11T17:41:18.709Z,63.42
2022-10-11T17:43:45.900Z,63.61
2022-10-11T17:46:14.507Z,63.94
2022-10-11T17:48:41.665Z,64.42
2022-10-11T17:51:14.230Z,64.78
2022-10-11T17:53:41.166Z,65.20
2022-10-11T17:56:10.603Z,65.76
2022-10-11T17:58:37.561Z,65.77
2022-10-11T18:01:10.835Z,65.21
2022-10-11T18:03:38.124Z,65.28
2022-10-11T18:06:06.969Z,64.81
2022-10-11T18:08:40.022Z,64.96
2022-10-11T18:11:15.942Z,64.74
2022-10-11T18:13:48.155Z,65.26
2022-10-11T18:16:16.376Z,65.15
2022-10-11T18:18:43.533Z,65.16
2022-10-11T18:21:12.051Z,65.32
2022-10-11T18:23:39.210Z,65.63
2022-10-11T18:26:13.041Z,65.29
2022-10-11T18:28:40.982Z,65.47
2022-10-11T18:31:14.336Z,65.94
2022-10-11T18:33:42.317Z,66.17
2022-10-11T18:36:10.580Z,66.41
2022-10-11T18:38:43.915Z,66.54
2022-10-11T18:41:12.172Z,67.00
2022-10-11T18:43:39.888Z,67.09
2022-10-11T18:46:08.893Z,67.44
2022-10-11T18:48:35.950Z,67.77
2022-10-11T18:51:05.187Z,67.78
2022-10-11T18:53:33.630Z,67.97
2022-10-11T18:56:01.650Z,67.80
2022-10-11T18:58:32.513Z,68.25
2022-10-11T19:01:06.276Z,68.20
2022-10-11T19:03:36.280Z,68.40
2022-10-11T19:06:18.780Z,68.71
2022-10-11T19:08:56.751Z,68.57
2022-10-11T19:11:28.962Z,68.81
2022-10-11T19:14:29.831Z,68.92
2022-10-11T19:17:10.452Z,69.05
2022-10-11T19:19:46.055Z,69.09
2022-10-11T19:22:42.898Z,69.04
2022-10-11T19:25:38.666Z,69.33
2022-10-11T19:29:13.002Z,69.51
2022-10-11T19:31:59.930Z,69.57
2022-10-11T19:35:06.073Z,69.96
2022-10-11T19:37:48.890Z,70.05
2022-10-11T19:40:37.848Z,70.19
2022-10-11T19:46:53.865Z,70.25
2022-10-11T19:49:33.094Z,70.21
2022-10-11T19:52:10.008Z,70.73
2022-10-11T19:54:39.976Z,70.57
2022-10-11T19:57:11.258Z,70.75
2022-10-11T19:59:52.942Z,70.69
2022-10-11T20:02:35.506Z,70.93
2022-10-11T20:05:08.806Z,71.37
2022-10-11T20:07:38.124Z,71.13
2022-10-11T20:10:55.048Z,71.29
2022-10-11T20:13:33.949Z,71.35
2022-10-11T20:16:11.579Z,71.48
2022-10-11T20:18:42.734Z,71.33
2022-10-11T20:21:14.851Z,71.73
2022-10-11T20:23:43.339Z,71.36
2022-10-11T20:26:13.772Z,71.46
2022-10-11T20:28:41.720Z,71.50
2022-10-11T20:31:17.209Z,71.63
2022-10-11T20:33:44.552Z,71.64
2022-10-11T20:36:14.111Z,71.60
2022-10-11T20:38:48.547Z,71.64
2022-10-11T20:41:20.690Z,71.56
2022-10-11T20:43:49.534Z,71.60
2022-10-11T20:46:29.507Z,71.59
2022-10-11T20:49:02.597Z,71.76
2022-10-11T20:51:31.202Z,71.90
2022-10-11T20:53:58.986Z,71.75
2022-10-11T20:56:26.846Z,71.94
2022-10-11T20:58:55.354Z,71.79
2022-10-11T21:01:35.686Z,71.75
2022-10-11T21:04:06.346Z,71.71
2022-10-11T21:06:40.074Z,71.92
2022-10-11T21:09:07.845Z,71.91
2022-10-11T21:11:35.786Z,71.96
2022-10-11T21:14:08.719Z,71.94
2022-10-11T21:16:35.887Z,71.97
2022-10-11T21:19:04.239Z,71.96
2022-10-11T21:21:34.809Z,72.03
2022-10-11T21:24:02.274Z,71.95
2022-10-11T21:26:29.978Z,71.84
2022-10-11T21:29:04.746Z,72.27
2022-10-11T21:31:34.754Z,72.11
2022-10-11T21:34:03.474Z,72.09
2022-10-11T21:36:30.971Z,72.54
2022-10-11T21:38:59.428Z,72.47
2022-10-11T21:41:29.165Z,72.47
2022-10-11T21:43:58.645Z,72.98
2022-10-11T21:46:47.691Z,72.96
2022-10-11T21:49:17.025Z,72.84
2022-10-11T21:51:44.055Z,72.76
2022-10-11T21:54:11.037Z,72.86
2022-10-11T21:56:37.897Z,72.55
2022-10-11T21:59:11.086Z,72.47
2022-10-11T22:01:40.179Z,72.38
2022-10-11T22:04:10.257Z,72.39
2022-10-11T22:06:40.405Z,72.58
2022-10-11T22:09:08.675Z,72.55
2022-10-11T22:11:40.509Z,72.77
2022-10-11T22:14:07.404Z,72.58
2022-10-11T22:16:34.911Z,72.92
2022-10-11T22:19:01.830Z,72.71
2022-10-11T22:21:28.951Z,72.76
2022-10-11T22:23:55.842Z,72.77
2022-10-11T22:26:35.842Z,72.65
2022-10-11T22:29:02.797Z,72.65
2022-10-11T22:31:30.116Z,72.41
2022-10-11T22:34:00.589Z,72.54
2022-10-11T22:36:30.802Z,72.36
2022-10-11T22:39:00.247Z,72.97
2022-10-11T22:41:30.636Z,72.88
2022-10-11T22:44:06.748Z,73.13
2022-10-11T22:46:35.995Z,73.30
2022-10-11T22:49:03.000Z,72.93
2022-10-11T22:51:29.988Z,72.98
2022-10-11T22:53:59.357Z,73.26
2022-10-11T22:56:26.308Z,73.12
2022-10-11T22:58:55.892Z,73.19
2022-10-11T23:01:22.774Z,73.24
2022-10-11T23:03:51.170Z,73.63
2022-10-11T23:06:18.194Z,73.50
2022-10-11T23:08:50.628Z,73.64
2022-10-11T23:11:18.268Z,73.72
2022-10-11T23:13:47.625Z,73.76
2022-10-11T23:16:14.550Z,73.77
2022-10-11T23:18:41.984Z,73.79
2022-10-11T23:21:09.486Z,73.54
2022-10-11T23:23:36.555Z,73.67
2022-10-11T23:26:09.160Z,73.39
2022-10-11T23:28:36.462Z,73.50
2022-10-11T23:31:08.478Z,73.30
2022-10-11T23:33:35.719Z,73.27
2022-10-11T23:36:03.143Z,73.59
2022-10-11T23:38:30.038Z,73.33
2022-10-11T23:40:59.799Z,73.44
2022-10-11T23:43:26.629Z,73.77
2022-10-11T23:45:55.553Z,73.60
2022-10-11T23:48:22.379Z,73.94
2022-10-11T23:50:51.521Z,73.77
2022-10-11T23:53:18.364Z,73.93
2022-10-11T23:55:47.562Z,73.62
2022-10-11T23:58:14.642Z,73.73
